Time;durP1;ratioP1;P1;durP2;ratioP2;P2;SDS_P1;SDS_P2;PMS_P1;PMS_P2;Temp;Humidity;BMP_temperature;BMP_pressure;BME280_temperature;BME280_humidity;BME280_pressure;Samples;Min_cycle;Max_cycle;Signal;HPM_P1;HPM_P2
2021/03/11 00:01:32;;;;;;;33.13;17.10;;;7.10;92.30;;;;;;5024338;28;20053;-75
2021/03/11 00:03:57;;;;;;;28.80;16.48;;;7.20;92.30;;;;;;5019135;28;20029;-76
2021/03/11 00:06:23;;;;;;;31.65;16.67;;;7.20;92.30;;;;;;5013576;28;20100;-75
2021/03/11 00:08:48;;;;;;;29.60;16.55;;;7.20;92.30;;;;;;5031857;28;20471;-75
2021/03/11 00:11:14;;;;;;;30.73;17.02;;;7.20;92.20;;;;;;5029207;28;20526;-75
2021/03/11 00:13:39;;;;;;;29.98;16.52;;;7.20;92.10;;;;;;5025292;28;20468;-75
2021/03/11 00:16:05;;;;;;;31.35;17.13;;;7.20;92.20;;;;;;5032781;28;20029;-75
2021/03/11 00:18:31;;;;;;;29.98;15.88;;;7.20;92.10;;;;;;5031997;28;20025;-75
2021/03/11 00:20:57;;;;;;;30.98;15.70;;;7.20;92.10;;;;;;5031405;28;20379;-75
2021/03/11 00:23:22;;;;;;;28.73;15.45;;;7.20;92.10;;;;;;5023252;28;20384;-76
2021/03/11 00:25:48;;;;;;;34.08;16.98;;;7.20;92.10;;;;;;5014195;28;20116;-76
2021/03/11 00:28:13;;;;;;;28.05;16.10;;;7.20;92.00;;;;;;5024607;28;20045;-76
2021/03/11 00:30:39;;;;;;;32.13;16.23;;;7.30;92.00;;;;;;5025960;28;20033;-76
2021/03/11 00:33:04;;;;;;;25.35;14.75;;;7.30;92.00;;;;;;5019760;28;20387;-76
2021/03/11 00:35:30;;;;;;;26.55;14.30;;;7.30;92.00;;;;;;5032489;28;20525;-75
2021/03/11 00:37:56;;;;;;;29.38;15.85;;;7.40;92.00;;;;;;5028315;28;20022;-77
2021/03/11 00:40:22;;;;;;;27.55;14.35;;;7.40;92.00;;;;;;5011543;28;20053;-77
2021/03/11 00:42:48;;;;;;;25.75;14.63;;;7.50;91.90;;;;;;5021090;28;20076;-76
2021/03/11 00:45:14;;;;;;;22.55;13.52;;;7.40;91.90;;;;;;5032392;28;20029;-76
2021/03/11 00:47:40;;;;;;;25.88;14.52;;;7.50;91.90;;;;;;5032218;28;20060;-75
2021/03/11 00:50:10;;;;;;;24.75;14.30;;;7.50;92.00;;;;;;5031250;28;20021;-76
2021/03/11 00:52:35;;;;;;;26.92;13.38;;;7.50;92.00;;;;;;5034636;28;20045;-76
2021/03/11 00:55:01;;;;;;;23.85;13.02;;;7.50;92.00;;;;;;5036318;28;20434;-76
2021/03/11 00:57:26;;;;;;;22.63;13.82;;;7.50;92.00;;;;;;5035594;28;20490;-75
2021/03/11 00:59:52;;;;;;;21.65;13.13;;;7.50;92.00;;;;;;5018295;28;20030;-74
2021/03/11 01:02:17;;;;;;;20.90;13.30;;;7.60;92.10;;;;;;5034386;28;20033;-76
2021/03/11 01:04:43;;;;;;;22.25;13.45;;;7.60;92.10;;;;;;5018160;28;20489;-75
2021/03/11 01:07:09;;;;;;;24.88;14.43;;;7.60;92.10;;;;;;5016804;28;20121;-75
2021/03/11 01:09:35;;;;;;;24.67;14.30;;;7.60;92.10;;;;;;5031525;28;20032;-75
2021/03/11 01:12:00;;;;;;;21.42;13.98;;;7.60;92.10;;;;;;5018854;28;20379;-75
2021/03/11 01:14:26;;;;;;;25.98;14.18;;;7.60;92.20;;;;;;5034304;28;20514;-75
2021/03/11 01:16:52;;;;;;;24.70;13.95;;;7.70;92.20;;;;;;5036559;28;20033;-75
2021/03/11 01:19:19;;;;;;;22.88;13.13;;;7.60;92.20;;;;;;5033795;28;20100;-76
2021/03/11 01:21:44;;;;;;;23.10;14.25;;;7.70;92.30;;;;;;5018333;28;20469;-76
2021/03/11 01:24:10;;;;;;;27.08;15.80;;;7.70;92.20;;;;;;5025250;28;20109;-75
2021/03/11 01:26:35;;;;;;;23.13;14.77;;;7.70;92.20;;;;;;5034551;28;20072;-75
2021/03/11 01:29:01;;;;;;;26.98;15.55;;;7.70;92.20;;;;;;5016306;28;20145;-75
2021/03/11 01:31:30;;;;;;;25.20;14.93;;;7.70;92.30;;;;;;5035404;28;20037;-74
2021/03/11 01:33:56;;;;;;;25.88;14.25;;;7.70;92.30;;;;;;5024478;28;20100;-75
2021/03/11 01:36:21;;;;;;;23.50;13.57;;;7.70;92.30;;;;;;5014700;28;20128;-76
2021/03/11 01:38:47;;;;;;;23.52;14.52;;;7.70;92.50;;;;;;5034124;28;20030;-76
2021/03/11 01:41:12;;;;;;;22.27;13.77;;;7.70;92.50;;;;;;5005705;28;20483;-75
2021/03/11 01:43:40;;;;;;;22.27;14.40;;;7.70;92.70;;;;;;5017539;28;20479;-75
2021/03/11 01:46:06;;;;;;;23.80;14.35;;;7.70;92.70;;;;;;5035379;28;20037;-75
2021/03/11 01:48:31;;;;;;;25.00;14.82;;;7.70;92.80;;;;;;5029685;28;20052;-74
2021/03/11 01:50:57;;;;;;;19.55;12.45;;;7.70;92.90;;;;;;5002544;28;20033;-76
2021/03/11 01:53:23;;;;;;;24.60;14.05;;;7.70;92.90;;;;;;5016004;28;20103;-76
2021/03/11 01:55:48;;;;;;;21.50;13.52;;;7.70;93.00;;;;;;5034933;28;20033;-75
2021/03/11 01:58:14;;;;;;;20.70;13.35;;;7.70;93.10;;;;;;5034388;28;20499;-74
2021/03/11 02:00:40;;;;;;;23.13;13.60;;;7.70;93.10;;;;;;5032711;28;20108;-76
2021/03/11 02:03:05;;;;;;;18.27;12.38;;;7.70;93.10;;;;;;5034634;28;20045;-75
2021/03/11 02:05:31;;;;;;;20.83;13.05;;;7.70;93.10;;;;;;5034961;28;20479;-75
2021/03/11 02:07:56;;;;;;;21.08;13.55;;;7.70;93.20;;;;;;5033150;28;20053;-76
2021/03/11 02:10:25;;;;;;;20.77;13.30;;;7.70;93.20;;;;;;5039000;28;20036;-76
2021/03/11 02:13:12;;;;;;;19.38;11.88;;;7.70;93.30;;;;;;5013859;28;20036;-75
2021/03/11 02:15:44;;;;;;;21.25;13.05;;;7.70;93.30;;;;;;5031428;28;20017;-76
2021/03/11 02:18:30;;;;;;;20.63;11.95;;;7.70;93.30;;;;;;5022651;28;20135;-75
2021/03/11 02:21:06;;;;;;;19.50;11.90;;;7.80;93.30;;;;;;5034034;28;20108;-75
2021/03/11 02:23:54;;;;;;;19.38;12.20;;;7.80;93.30;;;;;;5016559;28;20022;-75
2021/03/11 02:26:40;;;;;;;18.73;11.63;;;7.80;93.30;;;;;;5052863;28;20033;-75
2021/03/11 02:29:13;;;;;;;16.65;10.15;;;7.80;93.40;;;;;;5021207;28;20491;-75
2021/03/11 02:31:40;;;;;;;18.45;10.27;;;7.70;93.60;;;;;;5034383;28;20061;-75
2021/03/11 02:34:13;;;;;;;16.85;11.10;;;7.80;93.60;;;;;;5034294;28;20030;-75
2021/03/11 02:36:39;;;;;;;18.65;11.02;;;7.70;93.80;;;;;;5026746;28;20034;-75
2021/03/11 02:39:08;;;;;;;18.25;9.25;;;7.70;93.90;;;;;;5034181;28;20124;-75
2021/03/11 02:41:38;;;;;;;17.63;10.07;;;7.70;94.00;;;;;;5033793;28;20072;-75
2021/03/11 02:44:06;;;;;;;15.27;9.48;;;7.70;94.20;;;;;;5033353;28;20468;-75
2021/03/11 02:46:33;;;;;;;14.43;9.82;;;7.70;94.20;;;;;;5020867;28;20125;-75
2021/03/11 02:48:59;;;;;;;15.55;9.93;;;7.70;94.20;;;;;;5014903;28;20029;-75
2021/03/11 02:51:25;;;;;;;15.25;11.02;;;7.70;94.20;;;;;;5033411;28;20030;-74
2021/03/11 02:53:51;;;;;;;15.35;10.48;;;7.80;94.30;;;;;;5032669;28;20383;-75
2021/03/11 02:56:18;;;;;;;14.15;9.55;;;7.80;94.40;;;;;;5032747;28;20041;-75
2021/03/11 02:58:45;;;;;;;17.05;9.70;;;7.80;94.40;;;;;;5023155;28;20025;-75
2021/03/11 03:01:15;;;;;;;15.07;10.00;;;7.80;94.40;;;;;;5032923;28;20018;-75
2021/03/11 03:03:41;;;;;;;17.27;10.52;;;7.90;94.30;;;;;;5029738;28;20031;-75
2021/03/11 03:06:07;;;;;;;14.35;9.52;;;7.90;94.30;;;;;;5021516;28;20033;-75
2021/03/11 03:08:34;;;;;;;14.07;9.60;;;7.90;94.30;;;;;;5023223;28;20036;-75
2021/03/11 03:11:01;;;;;;;13.25;9.18;;;7.90;94.30;;;;;;5033758;28;20100;-75
2021/03/11 03:13:26;;;;;;;18.08;10.20;;;7.90;94.30;;;;;;5033790;28;20390;-75
2021/03/11 03:15:57;;;;;;;16.13;9.85;;;7.90;94.20;;;;;;5024353;28;20117;-75
2021/03/11 03:18:23;;;;;;;11.90;8.18;;;8.00;94.20;;;;;;5024587;28;20037;-76
2021/03/11 03:20:50;;;;;;;11.57;7.82;;;8.00;94.20;;;;;;5026398;28;20042;-74
2021/03/11 03:23:18;;;;;;;14.63;9.20;;;8.10;94.20;;;;;;5033282;28;20025;-75
2021/03/11 03:25:47;;;;;;;12.48;8.70;;;8.10;94.10;;;;;;5027801;28;20058;-75
2021/03/11 03:28:13;;;;;;;16.80;9.07;;;8.10;94.10;;;;;;5028896;28;20495;-75
2021/03/11 03:30:39;;;;;;;12.90;9.27;;;8.20;94.00;;;;;;5033051;28;20026;-75
2021/03/11 03:33:04;;;;;;;11.20;7.82;;;8.30;94.00;;;;;;5034087;28;20022;-75
2021/03/11 03:35:30;;;;;;;12.90;9.07;;;8.30;94.00;;;;;;5028960;28;20041;-75
2021/03/11 03:37:55;;;;;;;12.73;8.70;;;8.30;94.00;;;;;;5024106;28;20034;-75
2021/03/11 03:40:23;;;;;;;14.80;9.80;;;8.30;94.00;;;;;;5032914;28;21619;-75
2021/03/11 03:43:11;;;;;;;14.52;9.05;;;8.30;94.00;;;;;;5014167;28;20072;-76
2021/03/11 03:45:47;;;;;;;13.93;9.20;;;8.30;94.00;;;;;;5013162;28;20395;-75
2021/03/11 03:48:18;;;;;;;14.55;10.05;;;8.30;94.10;;;;;;5020803;28;20502;-76
2021/03/11 03:50:48;;;;;;;18.10;10.30;;;8.30;94.20;;;;;;5031684;28;20028;-75
2021/03/11 03:53:24;;;;;;;17.33;10.43;;;8.30;94.20;;;;;;5031437;28;20379;-75
2021/03/11 03:55:57;;;;;;;13.57;8.80;;;8.30;94.30;;;;;;5028061;28;20540;-75
2021/03/11 03:58:24;;;;;;;17.30;10.57;;;8.30;94.30;;;;;;5016833;28;20157;-76
2021/03/11 04:00:50;;;;;;;17.58;10.63;;;8.30;94.40;;;;;;5032309;28;20028;-76
2021/03/11 04:03:17;;;;;;;16.27;10.88;;;8.40;94.50;;;;;;5030973;28;20384;-75
2021/03/11 04:05:43;;;;;;;16.67;10.50;;;8.30;94.60;;;;;;5030950;28;20041;-75
2021/03/11 04:08:10;;;;;;;16.55;11.15;;;8.40;94.60;;;;;;5013547;28;20037;-76
2021/03/11 04:10:36;;;;;;;16.77;11.07;;;8.40;94.60;;;;;;5030843;28;20507;-75
2021/03/11 04:13:02;;;;;;;14.30;9.73;;;8.40;94.70;;;;;;5032497;28;20044;-75
2021/03/11 04:15:28;;;;;;;16.65;11.23;;;8.50;94.70;;;;;;5031681;28;20021;-74
2021/03/11 04:17:55;;;;;;;19.55;10.48;;;8.50;94.70;;;;;;5027479;28;20029;-75
2021/03/11 04:20:21;;;;;;;15.40;10.82;;;8.50;94.70;;;;;;5032275;28;20033;-75
2021/03/11 04:22:46;;;;;;;17.23;11.07;;;8.50;94.70;;;;;;5031885;28;20382;-75
2021/03/11 04:25:12;;;;;;;18.40;11.75;;;8.50;94.70;;;;;;5026293;28;20029;-75
2021/03/11 04:27:38;;;;;;;17.92;10.63;;;8.50;94.70;;;;;;5029270;28;20050;-75
2021/03/11 04:30:05;;;;;;;16.20;10.73;;;8.60;94.70;;;;;;5029626;28;20029;-75
2021/03/11 04:32:34;;;;;;;17.02;11.07;;;8.60;94.70;;;;;;5028083;28;20029;-74
2021/03/11 04:35:00;;;;;;;18.60;11.55;;;8.70;94.70;;;;;;5021183;28;20029;-74
2021/03/11 04:37:25;;;;;;;18.15;11.20;;;8.70;94.70;;;;;;5014774;28;20029;-73
2021/03/11 04:39:51;;;;;;;16.48;11.25;;;8.70;94.60;;;;;;5032612;28;20033;-74
2021/03/11 04:42:17;;;;;;;15.52;10.52;;;8.80;94.60;;;;;;5029770;28;20499;-75
2021/03/11 04:44:44;;;;;;;16.42;11.02;;;8.80;94.60;;;;;;5014641;28;20033;-74
2021/03/11 04:47:11;;;;;;;17.98;11.68;;;8.80;94.60;;;;;;5031472;28;20034;-73
2021/03/11 04:49:38;;;;;;;17.35;11.43;;;8.90;94.50;;;;;;5031977;28;20041;-74
2021/03/11 04:52:04;;;;;;;15.95;10.65;;;8.90;94.50;;;;;;5028158;28;20021;-74
2021/03/11 04:54:30;;;;;;;15.90;10.50;;;8.90;94.40;;;;;;5029335;28;20129;-74
2021/03/11 04:56:56;;;;;;;18.13;11.75;;;9.00;94.40;;;;;;5018569;28;20037;-73
2021/03/11 04:59:22;;;;;;;17.75;11.75;;;9.00;94.40;;;;;;5031566;28;20040;-73
2021/03/11 05:01:52;;;;;;;16.90;11.27;;;9.00;94.40;;;;;;5021523;28;20029;-74
2021/03/11 05:04:18;;;;;;;18.48;11.75;;;9.10;94.40;;;;;;5031480;28;20053;-74
2021/03/11 05:06:44;;;;;;;17.70;10.20;;;9.10;94.30;;;;;;5032651;28;20082;-73
2021/03/11 05:09:09;;;;;;;16.75;11.60;;;9.20;94.30;;;;;;5029407;28;20045;-74
2021/03/11 05:11:35;;;;;;;16.45;11.32;;;9.20;94.20;;;;;;5026463;28;20030;-73
2021/03/11 05:14:00;;;;;;;16.13;10.73;;;9.20;94.10;;;;;;5031514;28;20026;-73
2021/03/11 05:16:26;;;;;;;15.93;10.93;;;9.30;94.10;;;;;;5031857;28;20117;-74
2021/03/11 05:18:51;;;;;;;17.83;11.20;;;9.30;94.00;;;;;;5031451;28;20036;-73
2021/03/11 05:21:17;;;;;;;17.63;10.55;;;9.30;94.00;;;;;;5028410;28;20029;-73
2021/03/11 05:23:43;;;;;;;19.17;10.75;;;9.40;93.90;;;;;;5031817;28;20026;-74
2021/03/11 05:26:08;;;;;;;14.35;9.65;;;9.40;93.80;;;;;;5028105;28;20448;-72
2021/03/11 05:28:34;;;;;;;12.52;8.50;;;9.40;93.70;;;;;;5024484;28;20026;-74
2021/03/11 05:30:59;;;;;;;17.40;10.80;;;9.50;93.60;;;;;;5028010;28;20113;-74
2021/03/11 05:33:25;;;;;;;13.73;9.40;;;9.50;93.50;;;;;;5029773;28;20108;-73
2021/03/11 05:35:51;;;;;;;12.70;8.88;;;9.50;93.40;;;;;;5020260;28;20073;-73
2021/03/11 05:38:16;;;;;;;15.95;9.48;;;9.60;93.40;;;;;;5020930;28;20053;-72
2021/03/11 05:40:42;;;;;;;13.20;7.78;;;9.60;93.40;;;;;;5030220;28;20030;-74
2021/03/11 05:43:10;;;;;;;15.60;7.80;;;9.70;93.40;;;;;;5027656;28;20033;-73
2021/03/11 05:45:36;;;;;;;12.63;8.05;;;9.70;93.40;;;;;;5034784;28;20123;-73
2021/03/11 05:48:02;;;;;;;13.85;8.60;;;9.70;93.30;;;;;;5033970;28;20474;-73
2021/03/11 05:50:28;;;;;;;13.23;8.23;;;9.70;93.30;;;;;;5034761;28;20375;-73
2021/03/11 05:52:57;;;;;;;12.77;8.05;;;9.70;93.30;;;;;;5035246;28;20025;-74
2021/03/11 05:55:24;;;;;;;13.93;8.07;;;9.70;93.30;;;;;;5024941;28;20111;-74
2021/03/11 05:57:50;;;;;;;13.27;9.05;;;9.80;93.30;;;;;;5004664;28;20445;-74
2021/03/11 06:00:18;;;;;;;15.18;8.85;;;9.70;93.30;;;;;;5031600;28;20030;-74
2021/03/11 06:02:45;;;;;;;13.82;8.57;;;9.70;93.30;;;;;;5034696;28;20025;-74
2021/03/11 06:05:17;;;;;;;14.40;8.07;;;9.80;93.30;;;;;;5021671;28;20061;-73
2021/03/11 06:07:44;;;;;;;12.07;8.18;;;9.80;93.20;;;;;;5025883;28;20029;-74
2021/03/11 06:10:12;;;;;;;15.70;8.45;;;9.80;93.20;;;;;;5030914;28;20018;-72
2021/03/11 06:12:38;;;;;;;13.43;7.55;;;9.80;93.20;;;;;;5029695;28;20075;-73
2021/03/11 06:15:10;;;;;;;12.60;7.88;;;9.90;93.20;;;;;;5034395;28;20021;-74
2021/03/11 06:17:39;;;;;;;15.10;8.93;;;9.90;93.20;;;;;;5030793;28;20029;-73
2021/03/11 06:20:06;;;;;;;13.38;7.60;;;9.90;93.10;;;;;;4997944;28;20435;-73
2021/03/11 06:22:31;;;;;;;12.73;7.35;;;9.90;93.00;;;;;;5024561;28;20029;-73
2021/03/11 06:24:58;;;;;;;11.75;6.60;;;10.00;93.00;;;;;;5027127;28;20026;-73
2021/03/11 06:27:24;;;;;;;11.48;7.43;;;10.00;93.00;;;;;;5034372;28;20045;-72
2021/03/11 06:29:50;;;;;;;13.07;7.32;;;10.10;92.90;;;;;;5034618;28;20022;-73
2021/03/11 06:32:15;;;;;;;13.10;7.47;;;10.10;92.80;;;;;;5034335;28;20375;-73
2021/03/11 06:34:43;;;;;;;12.90;7.63;;;10.10;92.70;;;;;;5034236;28;20033;-73
2021/03/11 06:37:10;;;;;;;15.10;7.70;;;10.10;92.70;;;;;;5023816;28;20029;-72
2021/03/11 06:39:38;;;;;;;12.90;7.88;;;10.10;92.70;;;;;;5032610;28;20021;-73
2021/03/11 06:42:04;;;;;;;11.65;7.75;;;10.10;92.70;;;;;;5034158;28;20483;-73
2021/03/11 06:44:38;;;;;;;12.80;7.43;;;10.20;92.90;;;;;;5024688;28;20038;-73
2021/03/11 06:47:09;;;;;;;12.02;7.45;;;10.20;92.90;;;;;;5033031;28;20178;-73
2021/03/11 06:49:35;;;;;;;13.57;7.70;;;10.10;92.90;;;;;;5033826;28;20475;-73
2021/03/11 06:52:12;;;;;;;11.23;7.32;;;10.10;93.00;;;;;;5024920;28;20043;-75
2021/03/11 06:54:57;;;;;;;11.18;6.63;;;10.10;93.10;;;;;;5025061;28;20112;-74
2021/03/11 06:57:31;;;;;;;11.35;5.95;;;10.10;93.00;;;;;;5024110;28;20453;-73
2021/03/11 06:59:58;;;;;;;11.20;5.47;;;10.20;92.80;;;;;;5032896;28;20032;-74
2021/03/11 07:02:25;;;;;;;9.82;5.25;;;10.30;92.60;;;;;;5027804;28;20036;-74
2021/03/11 07:04:53;;;;;;;7.57;4.55;;;10.30;92.20;;;;;;5033238;28;20506;-72
2021/03/11 07:07:24;;;;;;;8.18;4.65;;;10.30;92.00;;;;;;5034185;28;20029;-74
2021/03/11 07:09:53;;;;;;;8.48;3.50;;;10.30;91.90;;;;;;5011957;28;20111;-73
2021/03/11 07:12:18;;;;;;;9.65;3.53;;;10.30;91.70;;;;;;5026702;28;20021;-73
2021/03/11 07:14:48;;;;;;;9.35;3.83;;;10.40;91.50;;;;;;5023903;28;20500;-73
2021/03/11 07:17:23;;;;;;;8.73;4.18;;;10.40;91.60;;;;;;5014358;28;20112;-70
2021/03/11 07:20:08;;;;;;;8.00;4.00;;;10.50;91.60;;;;;;5019740;28;20040;-71
2021/03/11 07:22:34;;;;;;;11.80;4.78;;;10.50;91.60;;;;;;5030954;28;20391;-70
2021/03/11 07:25:00;;;;;;;10.70;4.65;;;10.60;91.50;;;;;;5033848;28;20102;-72
2021/03/11 07:27:37;;;;;;;8.13;4.40;;;10.60;91.50;;;;;;5014345;28;20519;-70
2021/03/11 07:30:05;;;;;;;12.27;4.50;;;10.60;91.60;;;;;;5022151;28;20033;-70
2021/03/11 07:32:33;;;;;;;8.15;3.67;;;10.70;91.70;;;;;;5031808;28;20083;-71
2021/03/11 07:34:59;;;;;;;6.40;3.10;;;10.90;91.50;;;;;;5033841;28;20384;-71
2021/03/11 07:37:27;;;;;;;6.63;2.65;;;10.90;91.30;;;;;;5024967;28;20030;-70
2021/03/11 07:39:58;;;;;;;6.53;2.80;;;10.90;91.20;;;;;;5016066;28;20399;-70
2021/03/11 07:42:24;;;;;;;7.63;1.90;;;11.00;91.10;;;;;;5010683;28;20107;-71
2021/03/11 07:44:51;;;;;;;5.88;2.10;;;11.00;90.80;;;;;;5015478;28;20172;-80
2021/03/11 07:47:18;;;;;;;5.22;2.10;;;11.00;90.70;;;;;;5019566;28;20180;-71
2021/03/11 07:49:44;;;;;;;7.10;2.05;;;11.10;90.70;;;;;;5017512;28;20025;-71
2021/03/11 07:52:11;;;;;;;6.47;1.75;;;11.10;90.70;;;;;;5033464;28;20051;-71
2021/03/11 07:54:37;;;;;;;6.38;1.80;;;11.20;90.70;;;;;;5033651;28;20026;-72
2021/03/11 07:57:03;;;;;;;6.40;1.25;;;11.20;90.60;;;;;;5003527;28;20037;-71
2021/03/11 07:59:30;;;;;;;10.73;1.55;;;11.30;90.00;;;;;;5010249;28;20026;-71
2021/03/11 08:02:09;;;;;;;9.43;1.48;;;11.50;88.80;;;;;;5029863;28;20452;-70
2021/03/11 08:04:39;;;;;;;7.30;1.40;;;11.50;87.60;;;;;;5015487;28;20022;-71
2021/03/11 08:07:22;;;;;;;8.10;1.23;;;11.60;87.20;;;;;;5004042;28;20403;-71
2021/03/11 08:09:50;;;;;;;8.70;1.25;;;11.70;87.20;;;;;;5013689;28;20030;-73
2021/03/11 08:12:27;;;;;;;10.35;1.40;;;11.80;86.50;;;;;;5013671;28;20022;-71
2021/03/11 08:15:00;;;;;;;13.60;1.40;;;11.90;84.80;;;;;;5013719;28;20014;-71
2021/03/11 08:17:48;;;;;;;10.27;1.23;;;12.00;82.60;;;;;;5001258;28;20025;-70
2021/03/11 08:20:20;;;;;;;12.57;1.10;;;12.10;82.40;;;;;;5033107;28;20079;-71
2021/03/11 08:22:51;;;;;;;14.63;2.00;;;12.20;81.90;;;;;;5033109;28;20033;-71
2021/03/11 08:25:37;;;;;;;12.40;1.67;;;12.20;81.20;;;;;;5032524;28;20502;-71
2021/03/11 08:28:23;;;;;;;12.70;1.67;;;12.30;80.70;;;;;;5032268;28;20057;-70
2021/03/11 08:30:52;;;;;;;14.70;1.35;;;12.40;79.20;;;;;;5032600;28;20094;-71
2021/03/11 08:33:21;;;;;;;10.73;1.17;;;12.50;79.30;;;;;;5033148;28;20029;-70
2021/03/11 08:35:51;;;;;;;11.82;1.20;;;12.60;78.30;;;;;;5031628;28;20099;-71
2021/03/11 08:38:19;;;;;;;17.10;1.83;;;12.60;77.80;;;;;;5033162;28;20383;-71
2021/03/11 08:40:52;;;;;;;9.38;1.05;;;12.70;77.00;;;;;;5033098;28;20032;-71
2021/03/11 08:43:39;;;;;;;12.65;1.80;;;12.70;75.50;;;;;;5031049;28;20036;-71
2021/03/11 08:46:14;;;;;;;12.68;1.20;;;12.70;75.30;;;;;;5032310;28;20025;-71
2021/03/11 08:48:50;;;;;;;20.45;1.88;;;12.70;74.60;;;;;;5033126;28;20409;-70
2021/03/11 08:51:22;;;;;;;9.77;1.52;;;12.70;73.00;;;;;;5015093;28;20426;-71
2021/03/11 08:53:54;;;;;;;19.95;1.50;;;12.60;73.60;;;;;;5032192;28;20021;-71
2021/03/11 08:56:20;;;;;;;17.52;1.75;;;12.70;72.80;;;;;;5033040;28;20029;-71
2021/03/11 08:58:56;;;;;;;14.93;1.85;;;12.60;72.50;;;;;;5015323;28;20465;-75
2021/03/11 09:01:28;;;;;;;13.95;2.17;;;12.60;72.50;;;;;;5033387;28;20503;-77
2021/03/11 09:03:54;;;;;;;12.57;1.50;;;12.60;72.10;;;;;;5028804;28;20029;-80
2021/03/11 09:06:20;;;;;;;16.88;1.73;;;12.70;72.10;;;;;;5032726;28;20033;-75
2021/03/11 09:08:52;;;;;;;11.27;2.08;;;12.80;71.70;;;;;;5032921;28;20379;-75
2021/03/11 09:11:23;;;;;;;22.65;1.75;;;12.80;71.10;;;;;;5015781;28;20044;-75
2021/03/11 09:13:51;;;;;;;23.60;2.88;;;12.70;69.10;;;;;;5018651;28;20052;-76
2021/03/11 09:16:22;;;;;;;26.50;2.60;;;12.70;70.30;;;;;;5036751;28;20095;-76
2021/03/11 09:18:53;;;;;;;20.70;2.83;;;12.80;70.80;;;;;;5036720;28;20488;-74
2021/03/11 09:21:18;;;;;;;18.77;2.60;;;12.90;70.40;;;;;;5036367;28;20030;-73
2021/03/11 09:23:44;;;;;;;19.85;2.63;;;13.00;70.40;;;;;;5035868;28;20030;-74
2021/03/11 09:26:30;;;;;;;19.48;2.83;;;13.10;70.40;;;;;;5036413;28;20025;-75
2021/03/11 09:28:56;;;;;;;22.42;2.65;;;13.30;69.80;;;;;;5036514;28;20472;-75
2021/03/11 09:31:27;;;;;;;28.73;3.92;;;13.40;69.70;;;;;;5036278;28;20037;-76
2021/03/11 09:33:55;;;;;;;20.10;2.47;;;13.40;68.50;;;;;;5036343;28;20021;-76
2021/03/11 09:36:21;;;;;;;21.35;3.42;;;13.40;65.90;;;;;;5036047;28;20041;-75
2021/03/11 09:38:48;;;;;;;22.95;2.75;;;13.30;66.00;;;;;;5036465;28;20021;-75
2021/03/11 09:41:15;;;;;;;20.02;3.53;;;13.20;65.50;;;;;;5036372;28;20100;-76
2021/03/11 09:43:42;;;;;;;21.35;3.53;;;13.10;65.00;;;;;;5034885;28;20156;-78
2021/03/11 09:46:11;;;;;;;17.00;2.17;;;13.00;65.00;;;;;;5018269;28;20052;-77
2021/03/11 09:48:41;;;;;;;23.27;2.75;;;12.90;64.10;;;;;;5016974;28;20101;-78
2021/03/11 09:51:14;;;;;;;25.98;4.32;;;12.90;64.40;;;;;;5010921;28;20029;-78
2021/03/11 09:53:47;;;;;;;22.08;2.85;;;12.90;64.50;;;;;;5034389;28;20451;-75
2021/03/11 09:56:20;;;;;;;18.05;2.92;;;12.80;65.50;;;;;;5036021;28;20033;-77
2021/03/11 09:58:55;;;;;;;21.75;2.45;;;12.80;65.00;;;;;;5013834;28;20488;-78
2021/03/11 10:01:30;;;;;;;17.13;2.47;;;12.80;65.00;;;;;;5034177;28;20033;-80
2021/03/11 10:03:57;;;;;;;20.38;2.42;;;12.90;65.50;;;;;;5016087;28;20026;-78
2021/03/11 10:06:25;;;;;;;19.65;2.60;;;12.80;65.00;;;;;;5036414;28;20037;-79
2021/03/11 10:09:01;;;;;;;21.33;1.63;;;12.80;65.10;;;;;;5034651;28;20021;-80
2021/03/11 10:11:40;;;;;;;20.42;3.17;;;12.80;65.10;;;;;;5035704;28;20168;-80
2021/03/11 10:14:16;;;;;;;29.73;2.95;;;12.80;64.90;;;;;;5031868;28;20100;-79
2021/03/11 10:16:44;;;;;;;24.67;2.97;;;12.70;66.10;;;;;;5035053;28;20044;-80
2021/03/11 10:19:16;;;;;;;19.63;2.10;;;12.70;66.60;;;;;;5030833;28;20029;-78
2021/03/11 10:21:49;;;;;;;16.27;2.83;;;12.60;66.80;;;;;;5035777;28;20083;-80
2021/03/11 10:24:35;;;;;;;22.77;3.22;;;12.60;67.00;;;;;;5024292;28;20512;-79
2021/03/11 10:27:01;;;;;;;21.38;2.13;;;12.60;67.30;;;;;;5011387;28;20045;-79
2021/03/11 10:29:29;;;;;;;19.35;2.80;;;12.50;67.60;;;;;;5031823;28;20045;-79
2021/03/11 10:31:59;;;;;;;19.50;2.13;;;12.50;67.20;;;;;;5033618;28;20038;-78
2021/03/11 10:34:24;;;;;;;22.60;3.05;;;12.50;66.80;;;;;;5033298;28;20029;-78
2021/03/11 10:36:58;;;;;;;22.08;3.30;;;12.50;66.10;;;;;;5007764;28;20438;-81
2021/03/11 10:39:24;;;;;;;18.77;2.50;;;12.50;66.80;;;;;;5004170;28;20030;-81
2021/03/11 10:42:05;;;;;;;18.98;2.72;;;12.50;67.60;;;;;;5027651;28;20037;-78
2021/03/11 10:44:34;;;;;;;22.48;2.78;;;12.50;66.70;;;;;;5025717;28;20061;-79
2021/03/11 10:47:17;;;;;;;23.77;3.42;;;12.50;66.40;;;;;;5017087;28;20095;-80
2021/03/11 10:49:43;;;;;;;22.73;2.95;;;12.40;66.60;;;;;;5034879;28;20032;-79
2021/03/11 10:52:11;;;;;;;22.15;3.17;;;12.50;67.10;;;;;;5034781;28;20429;-80
2021/03/11 10:54:37;;;;;;;21.05;2.47;;;12.40;67.30;;;;;;5034730;28;20022;-80
2021/03/11 10:57:07;;;;;;;26.52;4.00;;;12.40;67.90;;;;;;5034501;28;20025;-77
2021/03/11 10:59:58;;;;;;;20.73;2.70;;;12.40;67.60;;;;;;5034375;28;20136;-79
2021/03/11 11:02:26;;;;;;;17.92;2.33;;;12.30;68.50;;;;;;5034941;28;20383;-80
2021/03/11 11:04:52;;;;;;;25.85;3.90;;;12.30;69.00;;;;;;5031557;28;20025;-79
2021/03/11 11:07:19;;;;;;;24.73;2.67;;;12.30;68.40;;;;;;5034303;28;20029;-79
2021/03/11 11:09:46;;;;;;;24.58;2.10;;;12.30;68.30;;;;;;5032164;28;20376;-78
2021/03/11 11:12:17;;;;;;;21.63;2.22;;;12.30;68.20;;;;;;5035199;28;20083;-82
2021/03/11 11:14:44;;;;;;;24.80;1.92;;;12.30;67.50;;;;;;5035702;28;20060;-78
2021/03/11 11:17:11;;;;;;;24.48;2.67;;;12.40;67.40;;;;;;5034828;28;20033;-80
2021/03/11 11:19:37;;;;;;;22.88;2.00;;;12.50;66.60;;;;;;5018036;28;20068;-78
2021/03/11 11:22:03;;;;;;;17.52;2.58;;;12.60;66.30;;;;;;5035448;28;20372;-78
2021/03/11 11:24:29;;;;;;;16.58;2.25;;;12.70;65.90;;;;;;5032536;28;20071;-79
2021/03/11 11:26:55;;;;;;;21.13;2.65;;;12.70;65.30;;;;;;5034853;28;20096;-79
2021/03/11 11:29:22;;;;;;;19.38;2.28;;;12.80;65.60;;;;;;5034658;28;20044;-79
2021/03/11 11:31:48;;;;;;;22.52;1.85;;;12.70;65.70;;;;;;5021766;28;20022;-79
2021/03/11 11:34:13;;;;;;;20.58;2.33;;;12.70;66.00;;;;;;5014182;28;20068;-77
2021/03/11 11:36:39;;;;;;;18.65;1.90;;;12.70;65.20;;;;;;5014155;28;20022;-79
2021/03/11 11:39:05;;;;;;;16.02;2.35;;;12.70;65.90;;;;;;5009250;28;20026;-77
2021/03/11 11:41:32;;;;;;;19.70;1.80;;;12.70;65.20;;;;;;5033797;28;20036;-76
2021/03/11 11:43:57;;;;;;;18.55;1.83;;;12.70;64.80;;;;;;5033910;28;20061;-77
2021/03/11 11:46:23;;;;;;;19.98;2.42;;;12.70;64.90;;;;;;5033986;28;20103;-78
2021/03/11 11:48:48;;;;;;;19.58;2.08;;;12.70;65.40;;;;;;5034819;28;20041;-77
2021/03/11 11:51:14;;;;;;;16.67;1.40;;;12.80;65.70;;;;;;5034791;28;20025;-77
2021/03/11 11:53:39;;;;;;;17.77;2.42;;;12.80;64.80;;;;;;5033659;28;20028;-76
2021/03/11 11:56:05;;;;;;;14.55;1.23;;;12.80;65.10;;;;;;5034661;28;20483;-77
2021/03/11 11:58:31;;;;;;;19.42;1.55;;;12.70;65.20;;;;;;5035338;28;20021;-77
2021/03/11 12:00:56;;;;;;;24.33;2.45;;;12.70;64.30;;;;;;5033487;28;20034;-78
2021/03/11 12:03:22;;;;;;;16.15;1.67;;;12.70;65.00;;;;;;5033364;28;20029;-78
2021/03/11 12:05:48;;;;;;;18.60;1.98;;;12.70;64.80;;;;;;5024384;28;20038;-78
2021/03/11 12:08:13;;;;;;;23.08;2.05;;;12.70;64.80;;;;;;5017327;28;20102;-77
2021/03/11 12:10:39;;;;;;;16.27;1.52;;;12.60;65.20;;;;;;5027402;28;20109;-78
2021/03/11 12:13:07;;;;;;;15.68;1.95;;;12.70;65.30;;;;;;5031351;28;20126;-79
2021/03/11 12:15:32;;;;;;;25.60;2.00;;;12.70;66.00;;;;;;5033503;28;20049;-79
2021/03/11 12:17:58;;;;;;;17.00;2.50;;;12.70;65.40;;;;;;5033093;28;20079;-77
2021/03/11 12:20:24;;;;;;;18.92;2.08;;;12.70;65.40;;;;;;5034340;28;20029;-77
2021/03/11 12:22:49;;;;;;;19.98;1.63;;;12.70;65.00;;;;;;5033313;28;20056;-81
2021/03/11 12:25:15;;;;;;;13.32;1.52;;;12.70;65.50;;;;;;5031788;28;20364;-77
2021/03/11 12:27:40;;;;;;;12.85;1.88;;;12.70;65.80;;;;;;5022027;28;20053;-78
2021/03/11 12:30:06;;;;;;;13.35;1.70;;;12.70;65.60;;;;;;5015564;28;20029;-77
2021/03/11 12:32:32;;;;;;;18.02;1.75;;;12.80;65.40;;;;;;5016177;28;20035;-78
2021/03/11 12:34:58;;;;;;;20.10;2.25;;;12.90;65.30;;;;;;5031706;28;20022;-80
2021/03/11 12:37:23;;;;;;;18.35;1.52;;;12.90;65.40;;;;;;5034062;28;20039;-79
2021/03/11 12:39:48;;;;;;;16.55;2.10;;;12.80;66.30;;;;;;5033020;28;20045;-77
2021/03/11 12:42:14;;;;;;;20.38;2.83;;;12.80;65.70;;;;;;5032666;28;20033;-78
2021/03/11 12:44:39;;;;;;;20.58;2.08;;;12.80;65.90;;;;;;5033374;28;20391;-78